Pagina principale
METAR-TAF:

METAR-TAF

Aeroporti :

Udine, Italia

Aeroporto di Rivolto

latitudine: 45-59N, longitudine: 013-02E, altezza: 51 m

Osservazione

Il bollettino è stato emesso 46 minuti fa, alle 08:55 UTC
Temperature 24°C
Umidità 69%
Pressione 1017 hPa
Visibilità 10 km o più
Poco nuvoloso ad un'altezza di 1500 ft

METAR: LIPI 290855Z /////KT 9999 FEW015 24/18 Q1017 RMK FEW VIS MIN 9999 WIND THR06 18006KT WIND THR24 18005KT 120V250 BLU

Ora: 11:41 (09:41 UTC)

Previsione

Il bollettino è stato emesso 1 ora e 41 minuti fa, alle 08:00 UTC
Previsione valida dal 29 alle 09 UTC al 29 alle 18 UTC
Vento 5 kt da sud/sud-ovest
Visibilità 10 km o più
nessuna nube inferiore a 1500 m e nessun cumulonembo
Temporaneamente
dal 29 alle 09 UTC al 29 alle 12 UTC
Visibilità 10 km o più
Poco nuvoloso ad un'altezza di 4000 ft

TAF: LIPI 290800Z 2909/2918 20005KT CAVOK TEMPO 2909/2912 9999 FEW040

Osservazioni e previsioni meteorologiche di più di 4000 aeroporti (messaggi METAR e TAF).

Le stazioni disponibili sono rappresentate dai dischi gialli e rossi sulla carta.

Puntare il mouse per vedere il nome della stazione.

Clicca sopra per visualizzare le osservazioni e previsioni meteorologiche.

Per cambiare la mappa : fare clic sui pulsanti verdi con una croce nera per ingrandire, il pulsante verde con un trattino per diminuire, o sulla freccia verde per le mappe adiacenti.


METAR-TAF: